Hometown, Illinois
Current Conditions -  °F | °C
As of 6:25 PM on Friday 31 Oct 2014 (Local Time) from KMDW Reporting Station
Light Snow Light Snow  
Wind Chill: 22°   Ceiling: 2400
Heat Index: 34°   Visibility: 9mi
Dew Point: 30°   Wind: 22mph
Humidity: 85%   Direction: 340°NNW
Pressure: 30.29"   Gusts: 35mph
Location:  41.73°N, 87.73°W
Report Text: KMDW 312325Z 34019G30KT 9SM -SN SCT015 BKN024 BKN045 01/M01 A3029 RMK AO2 PK WND 35031/2306 P0000 T00111011
Loading
Personal Weather Stations






























Interactive Weather Map
Tropical Storm Tracking
New forecast layout! Learn more

10-Day Weather Forecast

Advertisements
Track Severe Weather on mobile